createdAt,value
2018-07-28T00:01:07.453Z,21.33
2018-07-28T00:03:37.982Z,21.20
2018-07-28T00:06:09.260Z,21.12
2018-07-28T00:08:40.389Z,21.02
2018-07-28T00:11:11.953Z,20.97
2018-07-28T00:13:42.966Z,20.98
2018-07-28T00:16:13.804Z,20.91
2018-07-28T00:18:47.020Z,20.91
2018-07-28T00:21:18.744Z,20.92
2018-07-28T00:23:50.632Z,20.97
2018-07-28T00:26:23.400Z,20.87
2018-07-28T00:28:56.251Z,20.85
2018-07-28T00:31:27.945Z,20.77
2018-07-28T00:33:58.148Z,20.74
2018-07-28T00:36:34.440Z,20.74
2018-07-28T00:39:09.469Z,20.72
2018-07-28T00:41:41.524Z,20.71
2018-07-28T00:44:11.621Z,20.64
2018-07-28T00:46:44.118Z,20.59
2018-07-28T00:49:17.103Z,20.53
2018-07-28T00:51:49.733Z,20.50
2018-07-28T00:54:22.034Z,20.43
2018-07-28T00:56:53.178Z,20.39
2018-07-28T00:59:23.618Z,20.38
2018-07-28T01:01:53.456Z,20.37
2018-07-28T01:04:22.536Z,20.35
2018-07-28T01:06:55.446Z,20.38
2018-07-28T01:09:25.516Z,20.36
2018-07-28T01:11:59.885Z,20.35
2018-07-28T01:14:33.156Z,20.31
2018-07-28T01:17:06.170Z,20.24
2018-07-28T01:19:37.463Z,20.17
2018-07-28T01:22:10.186Z,20.14
2018-07-28T01:24:41.068Z,20.13
2018-07-28T01:27:11.777Z,20.05
2018-07-28T01:29:42.392Z,20.02
2018-07-28T01:32:11.314Z,20.03
2018-07-28T01:34:42.691Z,19.97
2018-07-28T01:37:19.568Z,19.93
2018-07-28T01:39:51.048Z,19.83
2018-07-28T01:42:21.589Z,19.86
2018-07-28T01:44:50.772Z,19.84
2018-07-28T01:47:21.288Z,19.79
2018-07-28T01:49:53.957Z,19.72
2018-07-28T01:52:23.388Z,19.76
2018-07-28T01:54:55.349Z,19.80
2018-07-28T01:57:25.606Z,19.75
2018-07-28T02:02:36.968Z,19.68
2018-07-28T02:05:10.477Z,19.68
2018-07-28T02:07:40.081Z,19.59
2018-07-28T02:10:16.833Z,19.60
2018-07-28T02:12:50.963Z,19.88
2018-07-28T02:15:20.448Z,19.74
2018-07-28T02:17:50.900Z,19.79
2018-07-28T02:20:22.646Z,19.84
2018-07-28T02:22:55.237Z,19.83
2018-07-28T02:25:26.268Z,19.93
2018-07-28T02:28:08.156Z,19.82
2018-07-28T02:30:39.223Z,19.81
2018-07-28T02:33:10.261Z,19.76
2018-07-28T02:35:39.324Z,19.72
2018-07-28T02:38:10.692Z,19.72
2018-07-28T02:40:41.851Z,19.79
2018-07-28T02:43:13.392Z,19.75
2018-07-28T02:45:43.810Z,19.76
2018-07-28T02:48:15.366Z,19.78
2018-07-28T02:50:46.732Z,19.41
2018-07-28T02:53:18.873Z,19.34
2018-07-28T02:55:50.033Z,19.41
2018-07-28T02:58:19.641Z,19.51
2018-07-28T03:00:50.112Z,19.52
2018-07-28T03:03:20.802Z,19.57
2018-07-28T03:05:56.430Z,19.61
2018-07-28T03:08:33.731Z,19.61
2018-07-28T03:11:05.453Z,19.58
2018-07-28T03:13:36.267Z,19.52
2018-07-28T03:16:17.349Z,19.47
2018-07-28T03:18:49.424Z,19.43
2018-07-28T03:21:34.229Z,19.10
2018-07-28T03:24:05.878Z,19.18
2018-07-28T03:26:38.405Z,19.21
2018-07-28T03:29:11.560Z,19.29
2018-07-28T03:31:44.338Z,19.24
2018-07-28T03:34:17.263Z,19.21
2018-07-28T03:36:48.268Z,19.21
2018-07-28T03:39:24.748Z,19.27
2018-07-28T03:41:55.171Z,19.42
2018-07-28T03:44:26.420Z,19.27
2018-07-28T03:46:56.253Z,19.21
2018-07-28T03:49:29.429Z,19.21
2018-07-28T03:52:03.664Z,19.31
2018-07-28T03:54:34.149Z,19.46
2018-07-28T03:57:05.028Z,19.50
2018-07-28T03:59:36.596Z,19.49
2018-07-28T04:02:14.044Z,19.56
2018-07-28T04:04:45.077Z,19.56
2018-07-28T04:07:15.089Z,19.60
2018-07-28T04:09:46.624Z,19.62
2018-07-28T04:12:18.942Z,19.72
2018-07-28T04:14:50.821Z,19.72
2018-07-28T04:17:20.781Z,19.60
2018-07-28T04:19:55.285Z,19.32
2018-07-28T04:22:26.045Z,19.52
2018-07-28T04:24:58.091Z,19.61
2018-07-28T04:27:29.854Z,19.91
2018-07-28T04:30:00.278Z,20.30
2018-07-28T04:32:32.221Z,20.61
2018-07-28T04:35:01.821Z,20.83
2018-07-28T04:37:36.960Z,20.96
2018-07-28T04:40:13.065Z,21.19
2018-07-28T04:42:43.741Z,21.22
2018-07-28T04:45:19.042Z,21.50
2018-07-28T04:47:51.006Z,21.59
2018-07-28T04:50:21.946Z,21.79
2018-07-28T04:52:53.780Z,21.96
2018-07-28T04:55:25.545Z,22.01
2018-07-28T04:57:56.708Z,22.19
2018-07-28T05:00:35.165Z,22.38
2018-07-28T05:03:08.933Z,22.48
2018-07-28T05:05:42.993Z,22.56
2018-07-28T05:08:13.373Z,22.76
2018-07-28T05:10:49.117Z,22.57
2018-07-28T05:13:18.684Z,22.82
2018-07-28T05:15:47.949Z,22.99
2018-07-28T05:18:22.374Z,23.08
2018-07-28T05:20:53.998Z,23.23
2018-07-28T05:23:26.248Z,23.42
2018-07-28T05:25:56.057Z,23.43
2018-07-28T05:28:26.076Z,23.52
2018-07-28T05:30:55.684Z,23.43
2018-07-28T05:33:27.420Z,23.41
2018-07-28T05:36:01.597Z,23.23
2018-07-28T05:38:31.057Z,23.37
2018-07-28T05:41:01.307Z,23.48
2018-07-28T05:43:31.710Z,23.21
2018-07-28T05:46:08.445Z,23.21
2018-07-28T05:48:40.948Z,23.25
2018-07-28T05:51:11.383Z,23.34
2018-07-28T05:53:45.090Z,23.43
2018-07-28T05:56:17.636Z,23.36
2018-07-28T05:58:50.044Z,23.56
2018-07-28T06:01:20.373Z,23.60
2018-07-28T06:03:50.817Z,23.63
2018-07-28T06:06:21.905Z,23.86
2018-07-28T06:08:57.245Z,23.93
2018-07-28T06:11:35.740Z,24.15
2018-07-28T06:14:11.753Z,24.23
2018-07-28T06:19:24.466Z,24.46
2018-07-28T06:22:14.543Z,24.70
2018-07-28T06:24:53.988Z,24.76
2018-07-28T06:27:47.244Z,24.76
2018-07-28T06:30:25.724Z,24.95
2018-07-28T06:32:59.776Z,24.95
2018-07-28T06:35:36.516Z,25.03
2018-07-28T06:38:16.265Z,25.12
2018-07-28T06:41:05.145Z,25.05
2018-07-28T06:43:55.365Z,25.08
2018-07-28T06:46:30.792Z,25.11
2018-07-28T06:49:04.312Z,25.16
2018-07-28T06:51:43.306Z,25.07
2018-07-28T06:54:16.473Z,25.26
2018-07-28T06:56:49.095Z,25.52
2018-07-28T06:59:21.932Z,25.72
2018-07-28T07:01:55.401Z,25.77
2018-07-28T07:04:25.301Z,25.63
2018-07-28T07:06:58.388Z,25.55
2018-07-28T07:09:32.728Z,25.57
2018-07-28T07:12:02.941Z,25.79
2018-07-28T07:14:32.249Z,25.84
2018-07-28T07:17:01.899Z,26.02
2018-07-28T07:19:31.045Z,26.17
2018-07-28T07:21:59.881Z,26.10
2018-07-28T07:24:29.325Z,26.11
2018-07-28T07:26:58.368Z,26.16
2018-07-28T07:29:27.513Z,26.03
2018-07-28T07:31:57.220Z,26.24
2018-07-28T07:34:26.333Z,26.40
2018-07-28T07:36:55.388Z,26.40
2018-07-28T07:39:25.292Z,26.44
2018-07-28T07:41:55.453Z,26.30
2018-07-28T07:44:27.279Z,26.33
2018-07-28T07:46:57.337Z,26.44
2018-07-28T07:49:27.193Z,26.31
2018-07-28T07:51:56.415Z,26.07
2018-07-28T07:54:27.776Z,26.25
2018-07-28T07:56:57.287Z,26.25
2018-07-28T07:59:26.409Z,26.57
2018-07-28T08:01:55.283Z,26.72
2018-07-28T08:04:25.089Z,26.64
2018-07-28T08:06:55.436Z,27.09
2018-07-28T08:09:24.916Z,27.15
2018-07-28T08:11:54.489Z,27.31
2018-07-28T08:14:25.728Z,27.58
2018-07-28T08:16:56.840Z,27.60
2018-07-28T08:19:25.703Z,27.30
2018-07-28T08:21:56.627Z,27.82
2018-07-28T08:24:30.000Z,27.73
2018-07-28T08:27:01.241Z,28.52
2018-07-28T08:29:33.561Z,29.97
2018-07-28T08:32:04.453Z,32.05
2018-07-28T08:34:36.564Z,33.90
2018-07-28T08:37:07.506Z,35.04
2018-07-28T08:39:40.339Z,37.44
2018-07-28T08:42:09.966Z,38.79
2018-07-28T08:44:41.663Z,39.89
2018-07-28T08:47:11.692Z,41.02
2018-07-28T08:49:40.937Z,41.47
2018-07-28T08:52:12.679Z,41.31
2018-07-28T08:54:46.292Z,42.11
2018-07-28T08:57:21.316Z,41.96
2018-07-28T08:59:51.796Z,42.38
2018-07-28T09:02:21.992Z,42.29
2018-07-28T09:04:51.935Z,42.57
2018-07-28T09:07:22.308Z,40.92
2018-07-28T09:09:52.769Z,40.25
2018-07-28T09:12:25.107Z,39.77
2018-07-28T09:14:54.969Z,38.60
2018-07-28T09:17:27.436Z,38.25
2018-07-28T09:19:58.381Z,37.75
2018-07-28T09:22:28.084Z,37.65
2018-07-28T09:24:58.605Z,37.56
2018-07-28T09:27:33.302Z,37.24
2018-07-28T09:30:03.444Z,35.19
2018-07-28T09:32:34.788Z,33.49
2018-07-28T09:35:03.974Z,32.77
2018-07-28T09:37:38.644Z,32.06
2018-07-28T09:40:09.652Z,31.35
2018-07-28T09:42:42.392Z,31.75
2018-07-28T09:45:13.385Z,31.15
2018-07-28T09:47:47.216Z,31.23
2018-07-28T09:50:22.228Z,31.59
2018-07-28T09:52:52.445Z,33.14
2018-07-28T09:55:22.805Z,35.24
2018-07-28T09:58:01.929Z,35.65
2018-07-28T10:00:37.259Z,36.43
2018-07-28T10:03:09.041Z,38.29
2018-07-28T10:05:38.856Z,39.72
2018-07-28T10:08:08.428Z,40.08
2018-07-28T10:10:41.402Z,39.51
2018-07-28T10:13:12.098Z,38.01
2018-07-28T10:15:51.566Z,37.60
2018-07-28T10:18:26.162Z,35.87
2018-07-28T10:20:59.224Z,34.30
2018-07-28T10:23:28.679Z,34.18
2018-07-28T10:26:09.565Z,34.07
2018-07-28T10:28:39.397Z,35.44
2018-07-28T10:31:12.554Z,36.63
2018-07-28T10:33:48.936Z,36.44
2018-07-28T10:36:20.660Z,36.54
2018-07-28T10:38:51.364Z,35.49
2018-07-28T10:41:23.104Z,33.98
2018-07-28T10:43:54.627Z,33.75
2018-07-28T10:46:26.345Z,33.98
2018-07-28T10:48:56.212Z,33.77
2018-07-28T10:51:29.700Z,33.64
2018-07-28T10:53:59.640Z,33.90
2018-07-28T10:56:29.231Z,32.41
2018-07-28T10:58:59.676Z,33.44
2018-07-28T11:01:37.257Z,33.63
2018-07-28T11:04:08.821Z,33.39
2018-07-28T11:06:39.014Z,33.34
2018-07-28T11:09:11.690Z,34.39
2018-07-28T11:11:42.744Z,34.79
2018-07-28T11:14:14.101Z,35.21
2018-07-28T11:16:48.822Z,36.17
2018-07-28T11:19:19.065Z,36.28
2018-07-28T11:21:48.808Z,36.60
2018-07-28T11:24:19.768Z,36.56
2018-07-28T11:26:51.916Z,36.01
2018-07-28T11:29:21.797Z,36.37
2018-07-28T11:32:08.157Z,36.40
2018-07-28T11:34:54.908Z,36.63
2018-07-28T11:39:45.906Z,35.17
2018-07-28T11:42:35.069Z,36.18
2018-07-28T11:45:19.387Z,35.64
2018-07-28T11:47:49.097Z,35.75
2018-07-28T11:50:21.100Z,35.53
2018-07-28T11:52:52.445Z,36.22
2018-07-28T11:55:26.289Z,37.77
2018-07-28T11:57:56.719Z,36.70
2018-07-28T12:00:26.336Z,36.09
2018-07-28T12:02:58.278Z,36.59
2018-07-28T12:05:27.881Z,36.68
2018-07-28T12:07:58.752Z,35.41
2018-07-28T12:10:33.648Z,35.27
2018-07-28T12:13:05.084Z,34.78
2018-07-28T12:15:37.050Z,34.41
2018-07-28T12:18:06.872Z,34.09
2018-07-28T12:20:36.784Z,33.75
2018-07-28T12:23:07.460Z,33.66
2018-07-28T12:25:38.857Z,34.10
2018-07-28T12:28:10.925Z,34.26
2018-07-28T12:30:43.833Z,33.34
2018-07-28T12:33:14.240Z,34.07
2018-07-28T12:35:45.967Z,34.76
2018-07-28T12:38:20.221Z,34.96
2018-07-28T12:40:49.917Z,35.68
2018-07-28T12:43:24.588Z,36.11
2018-07-28T12:46:00.601Z,35.55
2018-07-28T12:48:36.432Z,35.99
2018-07-28T12:51:07.505Z,35.28
2018-07-28T12:53:41.886Z,34.82
2018-07-28T12:56:15.571Z,35.45
2018-07-28T12:58:53.363Z,35.51
2018-07-28T13:01:26.781Z,35.43
2018-07-28T13:04:00.625Z,36.22
2018-07-28T13:06:32.437Z,37.22
2018-07-28T13:09:11.209Z,36.41
2018-07-28T13:11:46.045Z,36.90
2018-07-28T13:14:20.516Z,36.44
2018-07-28T13:16:50.575Z,34.63
2018-07-28T13:19:24.387Z,34.72
2018-07-28T13:21:55.121Z,33.77
2018-07-28T13:24:28.877Z,34.48
2018-07-28T13:27:00.278Z,34.30
2018-07-28T13:29:31.665Z,34.01
2018-07-28T13:32:04.410Z,34.14
2018-07-28T13:34:35.726Z,34.01
2018-07-28T13:37:07.411Z,34.27
2018-07-28T13:39:37.232Z,34.45
2018-07-28T13:42:12.226Z,34.10
2018-07-28T13:44:47.744Z,34.08
2018-07-28T13:47:18.949Z,34.96
2018-07-28T13:49:53.263Z,34.97
2018-07-28T13:52:23.691Z,35.36
2018-07-28T13:54:58.338Z,35.78
2018-07-28T13:57:30.544Z,36.05
2018-07-28T14:02:41.843Z,35.27
2018-07-28T14:07:49.293Z,35.47
2018-07-28T14:10:19.209Z,34.11
2018-07-28T14:12:48.669Z,33.82
2018-07-28T14:15:17.959Z,33.46
2018-07-28T14:17:51.526Z,33.07
2018-07-28T14:20:23.149Z,32.99
2018-07-28T14:22:53.322Z,33.45
2018-07-28T14:25:24.130Z,33.13
2018-07-28T14:27:56.531Z,33.00
2018-07-28T14:30:27.316Z,33.36
2018-07-28T14:32:58.981Z,32.78
2018-07-28T14:35:29.626Z,32.35
2018-07-28T14:37:59.335Z,31.83
2018-07-28T14:40:28.538Z,31.38
2018-07-28T14:43:01.249Z,31.14
2018-07-28T14:45:32.608Z,31.42
2018-07-28T14:48:01.731Z,31.44
2018-07-28T14:50:33.471Z,31.59
2018-07-28T14:53:04.132Z,31.19
2018-07-28T14:55:35.097Z,30.94
2018-07-28T14:58:05.188Z,30.92
2018-07-28T15:00:39.016Z,31.15
2018-07-28T15:03:10.211Z,31.68
2018-07-28T15:05:41.656Z,32.63
2018-07-28T15:08:16.285Z,32.47
2018-07-28T15:10:48.129Z,32.34
2018-07-28T15:13:22.006Z,32.47
2018-07-28T15:16:04.894Z,32.74
2018-07-28T15:18:37.136Z,32.08
2018-07-28T15:21:12.572Z,31.93
2018-07-28T15:23:47.964Z,32.02
2018-07-28T15:26:20.114Z,31.29
2018-07-28T15:29:02.724Z,31.22
2018-07-28T15:31:37.829Z,31.06
2018-07-28T15:34:20.809Z,31.12
2018-07-28T15:37:20.210Z,30.95
2018-07-28T15:39:54.317Z,31.25
2018-07-28T15:42:34.842Z,31.29
2018-07-28T15:45:17.495Z,31.35
2018-07-28T15:47:55.130Z,31.29
2018-07-28T15:50:34.609Z,31.02
2018-07-28T15:53:09.750Z,31.12
2018-07-28T15:55:49.487Z,31.05
2018-07-28T15:58:31.106Z,31.17
2018-07-28T16:03:40.238Z,30.85
2018-07-28T16:06:11.390Z,30.43
2018-07-28T16:08:43.976Z,30.64
2018-07-28T16:11:14.948Z,30.76
2018-07-28T16:13:47.222Z,30.60
2018-07-28T16:16:17.392Z,30.30
2018-07-28T16:18:46.505Z,30.38
2018-07-28T16:21:17.202Z,30.38
2018-07-28T16:23:46.519Z,30.05
2018-07-28T16:26:15.590Z,29.68
2018-07-28T16:28:44.760Z,29.72
2018-07-28T16:31:14.368Z,29.45
2018-07-28T16:33:47.129Z,29.41
2018-07-28T16:36:16.987Z,29.58
2018-07-28T16:38:46.161Z,29.41
2018-07-28T16:41:15.444Z,29.52
2018-07-28T16:43:45.844Z,29.69
2018-07-28T16:46:15.566Z,29.88
2018-07-28T16:48:44.621Z,30.13
2018-07-28T16:51:15.271Z,30.26
2018-07-28T16:53:44.373Z,30.19
2018-07-28T16:56:14.113Z,30.08
2018-07-28T16:58:44.497Z,29.79
2018-07-28T17:01:13.605Z,29.73
2018-07-28T17:03:43.120Z,29.88
2018-07-28T17:06:14.154Z,29.80
2018-07-28T17:08:46.298Z,29.80
2018-07-28T17:11:16.033Z,29.76
2018-07-28T17:13:45.328Z,29.82
2018-07-28T17:16:14.540Z,30.00
2018-07-28T17:18:45.739Z,29.87
2018-07-28T17:21:16.425Z,30.06
2018-07-28T17:23:47.395Z,30.14
2018-07-28T17:26:21.456Z,29.93
2018-07-28T17:28:59.044Z,30.03
2018-07-28T17:31:29.789Z,30.12
2018-07-28T17:34:00.616Z,29.90
2018-07-28T17:36:32.574Z,29.80
2018-07-28T17:39:02.701Z,29.75
2018-07-28T17:41:34.661Z,29.56
2018-07-28T17:44:04.277Z,29.42
2018-07-28T17:46:35.493Z,29.17
2018-07-28T17:49:09.041Z,29.23
2018-07-28T17:51:40.836Z,29.23
2018-07-28T17:54:12.311Z,29.05
2018-07-28T17:56:42.969Z,28.99
2018-07-28T17:59:13.753Z,28.86
2018-07-28T18:01:52.299Z,28.86
2018-07-28T18:04:21.416Z,28.82
2018-07-28T18:06:52.435Z,28.47
2018-07-28T18:09:23.607Z,28.46
2018-07-28T18:12:03.190Z,28.37
2018-07-28T18:14:34.744Z,28.33
2018-07-28T18:17:05.525Z,28.25
2018-07-28T18:19:37.590Z,28.08
2018-07-28T18:22:08.004Z,27.99
2018-07-28T18:24:39.568Z,28.19
2018-07-28T18:27:10.542Z,28.26
2018-07-28T18:29:40.839Z,28.19
2018-07-28T18:32:12.901Z,28.14
2018-07-28T18:34:41.985Z,28.02
2018-07-28T18:37:12.328Z,27.88
2018-07-28T18:39:45.500Z,27.71
2018-07-28T18:42:16.028Z,27.64
2018-07-28T18:44:47.581Z,27.50
2018-07-28T18:47:18.919Z,27.42
2018-07-28T18:49:49.045Z,27.29
2018-07-28T18:52:19.964Z,27.30
2018-07-28T18:54:49.519Z,27.22
2018-07-28T18:57:24.507Z,27.02
2018-07-28T18:59:56.467Z,26.89
2018-07-28T19:02:30.701Z,26.87
2018-07-28T19:05:01.009Z,26.76
2018-07-28T19:07:30.238Z,26.70
2018-07-28T19:10:02.879Z,26.64
2018-07-28T19:12:37.988Z,26.54
2018-07-28T19:15:09.496Z,26.43
2018-07-28T19:17:45.649Z,26.32
2018-07-28T19:20:21.908Z,26.33
2018-07-28T19:22:57.521Z,26.31
2018-07-28T19:25:27.393Z,26.10
2018-07-28T19:28:03.828Z,26.05
2018-07-28T19:30:34.056Z,25.99
2018-07-28T19:33:06.658Z,25.79
2018-07-28T19:35:43.535Z,25.74
2018-07-28T19:38:14.986Z,25.70
2018-07-28T19:40:45.916Z,25.61
2018-07-28T19:43:15.481Z,25.55
2018-07-28T19:45:46.397Z,25.42
2018-07-28T19:48:17.590Z,25.37
2018-07-28T19:50:51.625Z,25.25
2018-07-28T19:53:27.397Z,25.17
2018-07-28T19:55:59.545Z,25.04
2018-07-28T19:58:32.025Z,25.01
2018-07-28T20:01:03.664Z,24.89
2018-07-28T20:03:35.309Z,24.84
2018-07-28T20:06:09.008Z,24.73
2018-07-28T20:08:43.269Z,24.63
2018-07-28T20:11:16.337Z,24.49
2018-07-28T20:13:49.200Z,24.42
2018-07-28T20:16:21.365Z,24.26
2018-07-28T20:18:52.248Z,24.15
2018-07-28T20:21:22.703Z,24.05
2018-07-28T20:23:54.944Z,23.98
2018-07-28T20:26:25.486Z,23.88
2018-07-28T20:28:55.263Z,23.77
2018-07-28T20:31:25.162Z,23.68
2018-07-28T20:33:55.190Z,23.55
2018-07-28T20:36:25.313Z,23.52
2018-07-28T20:38:58.728Z,23.40
2018-07-28T20:41:28.921Z,23.39
2018-07-28T20:44:02.848Z,23.28
2018-07-28T20:46:32.848Z,23.24
2018-07-28T20:49:04.231Z,23.17
2018-07-28T20:51:38.830Z,23.16
2018-07-28T20:54:09.874Z,23.06
2018-07-28T20:56:44.409Z,22.98
2018-07-28T20:59:18.595Z,22.87
2018-07-28T21:01:48.951Z,22.76
2018-07-28T21:04:18.457Z,22.69
2018-07-28T21:06:47.937Z,22.68
2018-07-28T21:09:23.995Z,22.63
2018-07-28T21:11:54.278Z,22.53
2018-07-28T21:14:26.757Z,22.47
2018-07-28T21:16:57.940Z,22.29
2018-07-28T21:19:29.959Z,22.23
2018-07-28T21:21:59.913Z,22.14
2018-07-28T21:24:31.012Z,22.10
2018-07-28T21:27:02.105Z,22.03
2018-07-28T21:29:31.300Z,21.94
2018-07-28T21:32:04.060Z,21.89
2018-07-28T21:34:42.497Z,21.80
2018-07-28T21:37:16.001Z,21.73
2018-07-28T21:39:52.085Z,21.67
2018-07-28T21:42:24.839Z,21.56
2018-07-28T21:44:58.462Z,21.43
2018-07-28T21:47:34.364Z,21.31
2018-07-28T21:50:07.040Z,21.29
2018-07-28T21:52:38.497Z,21.22
2018-07-28T21:55:08.649Z,21.13
2018-07-28T21:57:45.300Z,21.15
2018-07-28T22:00:19.027Z,21.09
2018-07-28T22:02:53.616Z,21.08
2018-07-28T22:05:24.388Z,21.08
2018-07-28T22:07:56.317Z,21.11
2018-07-28T22:10:31.048Z,20.98
2018-07-28T22:13:02.593Z,20.90
2018-07-28T22:15:33.414Z,20.95
2018-07-28T22:18:06.861Z,20.95
2018-07-28T22:20:43.938Z,20.86
2018-07-28T22:23:15.544Z,20.88
2018-07-28T22:25:46.230Z,20.88
2018-07-28T22:28:19.175Z,20.81
2018-07-28T22:30:49.936Z,20.50
2018-07-28T22:33:19.162Z,20.61
2018-07-28T22:35:52.071Z,20.62
2018-07-28T22:38:23.645Z,20.68
2018-07-28T22:40:55.636Z,20.61
2018-07-28T22:43:29.872Z,20.63
2018-07-28T22:46:03.504Z,20.77
2018-07-28T22:48:34.006Z,20.75
2018-07-28T22:51:07.460Z,20.80
2018-07-28T22:53:38.777Z,20.82
2018-07-28T22:56:10.728Z,20.83
2018-07-28T22:58:43.585Z,20.78
2018-07-28T23:01:17.315Z,20.81
2018-07-28T23:03:47.832Z,20.75
2018-07-28T23:06:18.848Z,20.73
2018-07-28T23:08:51.352Z,20.70
2018-07-28T23:11:25.999Z,20.59
2018-07-28T23:13:55.997Z,20.50
2018-07-28T23:16:27.163Z,20.42
2018-07-28T23:18:57.466Z,20.46
2018-07-28T23:21:30.604Z,20.43
2018-07-28T23:24:02.293Z,20.48
2018-07-28T23:26:39.016Z,20.50
2018-07-28T23:29:12.681Z,20.44
2018-07-28T23:31:44.857Z,20.40
2018-07-28T23:34:15.021Z,20.42
2018-07-28T23:36:46.900Z,20.41
2018-07-28T23:39:19.287Z,20.38
2018-07-28T23:41:50.832Z,20.36
2018-07-28T23:44:24.073Z,20.31
2018-07-28T23:46:55.305Z,20.31
2018-07-28T23:49:25.585Z,20.35
2018-07-28T23:51:54.517Z,20.36
2018-07-28T23:54:27.421Z,20.25
2018-07-28T23:56:57.671Z,20.17
2018-07-28T23:59:32.677Z,20.12
